createdAt,value
2022-08-05T00:00:18.847Z,3.70
2022-08-05T00:03:04.629Z,3.40
2022-08-05T00:06:05.066Z,3.60
2022-08-05T00:08:34.798Z,4.00
2022-08-05T00:13:52.907Z,3.80
2022-08-05T00:16:35.467Z,3.60
2022-08-05T00:19:04.753Z,3.70
2022-08-05T00:21:36.024Z,3.40
2022-08-05T00:24:10.575Z,3.90
2022-08-05T00:26:38.899Z,4.00
2022-08-05T00:29:13.928Z,4.00
2022-08-05T00:31:53.427Z,4.60
2022-08-05T00:34:55.129Z,3.90
2022-08-05T00:37:15.113Z,4.00
2022-08-05T00:39:44.386Z,3.70
2022-08-05T00:42:42.013Z,3.90
2022-08-05T00:45:15.332Z,3.70
2022-08-05T00:47:57.062Z,3.70
2022-08-05T00:50:29.597Z,3.80
2022-08-05T00:52:56.607Z,4.00
2022-08-05T00:55:33.928Z,3.60
2022-08-05T00:58:12.157Z,4.20
2022-08-05T01:00:40.850Z,4.10
2022-08-05T01:03:10.404Z,3.70
2022-08-05T01:05:51.211Z,3.80
2022-08-05T01:08:39.225Z,4.20
2022-08-05T01:11:38.884Z,3.90
2022-08-05T01:14:36.629Z,4.30
2022-08-05T01:17:23.000Z,3.90
2022-08-05T01:20:02.730Z,3.70
2022-08-05T01:22:57.184Z,4.60
2022-08-05T01:25:41.091Z,4.30
2022-08-05T01:28:26.815Z,3.60
2022-08-05T01:31:01.328Z,3.30
2022-08-05T01:33:43.235Z,3.80
2022-08-05T01:36:21.079Z,3.90
2022-08-05T01:38:56.385Z,4.00
2022-08-05T01:41:32.974Z,4.00
2022-08-05T01:44:01.871Z,4.10
2022-08-05T01:46:41.910Z,3.90
2022-08-05T01:49:24.338Z,4.40
2022-08-05T01:51:58.780Z,3.80
2022-08-05T01:54:32.655Z,3.90
2022-08-05T01:58:11.342Z,4.00
2022-08-05T01:59:54.516Z,3.70
2022-08-05T02:02:26.134Z,4.30
2022-08-05T02:05:03.278Z,4.20
2022-08-05T02:07:32.453Z,4.40
2022-08-05T02:10:03.368Z,4.50
2022-08-05T02:12:56.387Z,4.40
2022-08-05T02:15:41.627Z,4.10
2022-08-05T02:21:19.199Z,4.90
2022-08-05T02:23:54.725Z,4.30
2022-08-05T02:26:30.511Z,4.70
2022-08-05T02:28:58.322Z,4.50
2022-08-05T02:31:34.878Z,4.70
2022-08-05T02:34:09.900Z,4.80
2022-08-05T02:36:54.132Z,4.00
2022-08-05T02:39:26.241Z,4.20
2022-08-05T02:44:31.797Z,3.90
2022-08-05T02:47:00.762Z,4.50
2022-08-05T02:49:35.983Z,4.70
2022-08-05T02:52:11.482Z,4.80
2022-08-05T02:54:41.474Z,5.00
2022-08-05T02:58:11.377Z,4.60
2022-08-05T03:00:01.597Z,4.50
2022-08-05T03:02:36.255Z,4.70
2022-08-05T03:05:06.301Z,4.10
2022-08-05T03:08:00.938Z,4.90
2022-08-05T03:10:24.773Z,4.40
2022-08-05T03:15:23.738Z,4.60
2022-08-05T03:17:55.989Z,4.30
2022-08-05T03:20:24.964Z,5.00
2022-08-05T03:22:55.207Z,4.60
2022-08-05T03:25:59.757Z,4.60
2022-08-05T03:28:14.208Z,4.10
2022-08-05T03:30:42.617Z,4.30
2022-08-05T03:33:10.207Z,4.40
2022-08-05T03:35:40.499Z,4.50
2022-08-05T03:38:14.329Z,5.00
2022-08-05T03:40:45.201Z,4.60
2022-08-05T03:46:03.777Z,3.80
2022-08-05T03:48:35.293Z,4.40
2022-08-05T03:52:36.627Z,4.80
2022-08-05T03:56:01.099Z,4.30
2022-08-05T03:57:42.042Z,3.90
2022-08-05T04:00:15.867Z,4.10
2022-08-05T04:02:58.446Z,4.10
2022-08-05T04:05:33.600Z,4.50
2022-08-05T04:08:05.486Z,4.40
2022-08-05T04:10:38.172Z,4.60
2022-08-05T04:13:07.575Z,4.40
2022-08-05T04:15:36.082Z,4.70
2022-08-05T04:18:07.225Z,4.80
2022-08-05T04:20:37.098Z,4.70
2022-08-05T04:23:04.442Z,5.10
2022-08-05T04:25:56.693Z,5.20
2022-08-05T04:28:30.985Z,4.90
2022-08-05T04:31:01.092Z,4.40
2022-08-05T04:33:54.561Z,4.40
2022-08-05T04:36:45.185Z,4.40
2022-08-05T04:39:03.539Z,4.40
2022-08-05T04:41:36.664Z,4.40
2022-08-05T04:44:09.580Z,4.50
2022-08-05T04:46:38.550Z,4.20
2022-08-05T04:49:12.400Z,5.00
2022-08-05T04:51:44.688Z,4.70
2022-08-05T04:54:13.932Z,4.70
2022-08-05T04:56:41.251Z,4.60
2022-08-05T04:59:21.406Z,4.30
2022-08-05T05:02:07.570Z,4.50
2022-08-05T05:04:38.539Z,4.30
2022-08-05T05:07:17.271Z,4.70
2022-08-05T05:09:45.372Z,4.40
2022-08-05T05:12:12.243Z,4.50
2022-08-05T05:14:49.470Z,5.30
2022-08-05T05:17:23.485Z,5.10
2022-08-05T05:19:56.407Z,4.30
2022-08-05T05:22:26.002Z,5.10
2022-08-05T05:25:00.238Z,5.00
2022-08-05T05:27:44.415Z,5.10
2022-08-05T05:30:30.542Z,4.40
2022-08-05T05:33:08.964Z,4.80
2022-08-05T05:35:47.908Z,4.90
2022-08-05T05:38:26.886Z,4.70
2022-08-05T05:40:57.541Z,4.60
2022-08-05T05:43:54.483Z,4.70
2022-08-05T05:46:17.203Z,4.20
2022-08-05T05:48:47.841Z,4.30
2022-08-05T05:51:21.276Z,4.50
2022-08-05T05:53:58.287Z,4.70
2022-08-05T05:56:33.348Z,4.30
2022-08-05T05:59:06.525Z,4.10
2022-08-05T06:01:38.899Z,4.80
2022-08-05T06:06:47.788Z,4.30
2022-08-05T06:09:24.916Z,4.10
2022-08-05T06:12:03.201Z,4.10
2022-08-05T06:14:31.923Z,4.50
2022-08-05T06:17:01.934Z,4.30
2022-08-05T06:19:56.971Z,4.00
2022-08-05T06:22:30.601Z,3.60
2022-08-05T06:25:59.858Z,4.90
2022-08-05T06:28:11.369Z,5.80
2022-08-05T06:30:42.129Z,5.10
2022-08-05T06:33:10.013Z,4.40
2022-08-05T06:36:06.906Z,5.90
2022-08-05T06:38:36.399Z,5.40
2022-08-05T06:41:05.515Z,5.90
2022-08-05T06:43:58.762Z,6.00
2022-08-05T06:46:30.076Z,5.40
2022-08-05T06:49:00.837Z,5.20
2022-08-05T06:51:31.021Z,5.50
2022-08-05T06:54:00.299Z,4.70
2022-08-05T06:56:34.484Z,5.00
2022-08-05T06:59:09.720Z,4.70
2022-08-05T07:01:40.744Z,4.80
2022-08-05T07:04:09.810Z,4.60
2022-08-05T07:06:37.782Z,4.00
2022-08-05T07:09:05.142Z,4.50
2022-08-05T07:11:37.133Z,4.60
2022-08-05T07:14:29.429Z,4.40
2022-08-05T07:18:08.749Z,4.10
2022-08-05T07:22:35.856Z,4.60
2022-08-05T07:25:23.908Z,4.40
2022-08-05T07:27:58.318Z,4.60
2022-08-05T07:30:33.801Z,4.40
2022-08-05T07:33:08.823Z,4.10
2022-08-05T07:36:02.809Z,4.40
2022-08-05T07:38:33.775Z,4.10
2022-08-05T07:42:07.316Z,4.20
2022-08-05T07:43:56.899Z,4.50
2022-08-05T07:46:27.863Z,4.30
2022-08-05T07:49:02.440Z,4.40
2022-08-05T07:51:52.804Z,4.90
2022-08-05T07:54:31.766Z,4.30
2022-08-05T07:57:22.505Z,4.00
2022-08-05T07:59:52.334Z,3.70
2022-08-05T08:02:30.844Z,3.00
2022-08-05T08:04:58.993Z,3.90
2022-08-05T08:07:28.397Z,4.00
2022-08-05T08:09:56.466Z,3.60
2022-08-05T08:12:35.586Z,3.90
2022-08-05T08:15:14.042Z,4.30
2022-08-05T08:17:52.586Z,3.90
2022-08-05T08:20:45.381Z,4.00
2022-08-05T08:24:01.652Z,3.80
2022-08-05T08:26:04.559Z,3.90
2022-08-05T08:28:36.808Z,3.40
2022-08-05T08:31:06.364Z,4.30
2022-08-05T08:33:38.118Z,3.80
2022-08-05T08:38:56.029Z,3.70
2022-08-05T08:41:50.713Z,4.30
2022-08-05T08:45:18.598Z,3.80
2022-08-05T08:47:21.637Z,4.00
2022-08-05T08:50:07.896Z,3.20
2022-08-05T08:52:53.803Z,3.20
2022-08-05T08:56:02.191Z,3.50
2022-08-05T08:58:10.641Z,2.90
2022-08-05T09:00:42.468Z,3.30
2022-08-05T09:03:11.170Z,3.10
2022-08-05T09:06:07.844Z,2.40
2022-08-05T09:08:26.508Z,2.80
2022-08-05T09:10:54.957Z,2.30
2022-08-05T09:13:23.515Z,2.40
2022-08-05T09:15:52.468Z,2.50
2022-08-05T09:18:22.556Z,2.80
2022-08-05T09:20:50.833Z,2.70
2022-08-05T09:23:22.918Z,2.50
2022-08-05T09:26:09.222Z,2.70
2022-08-05T09:28:39.743Z,3.00
2022-08-05T09:31:18.258Z,2.20
2022-08-05T09:34:09.894Z,2.60
2022-08-05T09:36:56.002Z,2.40
2022-08-05T09:39:41.601Z,2.40
2022-08-05T09:42:22.991Z,2.40
2022-08-05T09:44:56.580Z,3.20
2022-08-05T09:47:29.693Z,2.70
2022-08-05T09:50:18.127Z,2.20
2022-08-05T09:53:01.197Z,2.70
2022-08-05T09:55:56.436Z,2.60
2022-08-05T09:58:23.411Z,2.60
2022-08-05T10:01:00.848Z,2.40
2022-08-05T10:03:56.533Z,2.90
2022-08-05T10:06:19.148Z,2.80
2022-08-05T10:08:53.738Z,2.90
2022-08-05T10:11:21.605Z,2.50
2022-08-05T10:13:54.547Z,2.80
2022-08-05T10:16:38.017Z,2.30
2022-08-05T10:19:23.594Z,2.30
2022-08-05T10:21:59.163Z,2.70
2022-08-05T10:24:27.368Z,2.80
2022-08-05T10:26:56.154Z,2.30
2022-08-05T10:30:41.403Z,3.00
2022-08-05T10:32:53.218Z,3.00
2022-08-05T10:35:07.871Z,2.60
2022-08-05T10:37:40.286Z,2.80
2022-08-05T10:40:51.561Z,3.00
2022-08-05T10:43:48.615Z,2.80
2022-08-05T10:46:18.955Z,2.90
2022-08-05T10:49:09.993Z,2.40
2022-08-05T10:51:59.746Z,2.30
2022-08-05T10:55:02.569Z,2.70
2022-08-05T10:57:33.643Z,2.50
2022-08-05T11:00:13.251Z,2.40
2022-08-05T11:03:25.702Z,3.00
2022-08-05T11:06:15.714Z,2.80
2022-08-05T11:09:32.188Z,2.50
2022-08-05T11:12:43.862Z,2.30
2022-08-05T11:15:20.027Z,2.90
2022-08-05T11:17:57.515Z,2.60
2022-08-05T11:20:47.428Z,2.60
2022-08-05T11:24:02.562Z,2.70
2022-08-05T11:26:28.751Z,2.70
2022-08-05T11:29:12.311Z,2.50
2022-08-05T11:31:54.266Z,2.50
2022-08-05T11:34:47.493Z,2.60
2022-08-05T11:38:29.748Z,2.70
2022-08-05T11:41:35.084Z,2.50
2022-08-05T11:44:40.953Z,2.50
2022-08-05T11:47:19.979Z,2.50
2022-08-05T11:50:00.121Z,2.60
2022-08-05T11:52:31.189Z,2.40
2022-08-05T11:54:59.134Z,2.40
2022-08-05T11:58:08.096Z,2.30
2022-08-05T12:00:30.279Z,2.60
2022-08-05T12:02:57.480Z,2.30
2022-08-05T12:05:36.368Z,2.60
2022-08-05T12:08:09.989Z,2.20
2022-08-05T12:10:45.168Z,2.40
2022-08-05T12:13:18.638Z,2.40
2022-08-05T12:15:55.982Z,2.80
2022-08-05T12:18:38.931Z,2.00
2022-08-05T12:21:15.381Z,2.60
2022-08-05T12:24:20.723Z,2.60
2022-08-05T12:26:53.903Z,2.40
2022-08-05T12:29:24.754Z,2.10
2022-08-05T12:32:01.979Z,2.60
2022-08-05T12:34:36.522Z,2.30
2022-08-05T12:37:16.260Z,2.10
2022-08-05T12:39:44.737Z,2.20
2022-08-05T12:42:17.651Z,1.80
2022-08-05T12:44:45.866Z,2.20
2022-08-05T12:47:30.423Z,2.00
2022-08-05T12:50:04.165Z,1.90
2022-08-05T12:52:39.139Z,1.90
2022-08-05T12:55:26.196Z,2.20
2022-08-05T12:58:51.272Z,2.30
2022-08-05T13:02:03.769Z,1.90
2022-08-05T13:03:41.460Z,2.20
2022-08-05T13:06:16.477Z,2.20
2022-08-05T13:08:51.724Z,2.10
2022-08-05T13:12:01.747Z,2.10
2022-08-05T13:14:24.755Z,1.80
2022-08-05T13:17:20.467Z,1.80
2022-08-05T13:19:59.317Z,2.00
2022-08-05T13:22:27.749Z,2.60
2022-08-05T13:25:00.961Z,1.90
2022-08-05T13:27:42.961Z,2.00
2022-08-05T13:30:33.956Z,1.90
2022-08-05T13:33:01.400Z,2.10
2022-08-05T13:35:42.391Z,2.30
2022-08-05T13:38:28.260Z,1.80
2022-08-05T13:40:59.912Z,2.30
2022-08-05T13:43:44.434Z,2.30
2022-08-05T13:46:16.632Z,2.10
2022-08-05T13:49:03.790Z,2.10
2022-08-05T13:51:40.236Z,2.60
2022-08-05T13:54:13.254Z,2.10
2022-08-05T13:56:45.434Z,2.00
2022-08-05T13:59:24.591Z,2.10
2022-08-05T14:01:57.360Z,2.10
2022-08-05T14:04:50.556Z,2.00
2022-08-05T14:10:34.289Z,1.90
2022-08-05T14:13:02.463Z,2.30
2022-08-05T14:16:04.846Z,2.60
2022-08-05T14:18:23.473Z,2.10
2022-08-05T14:20:52.909Z,2.00
2022-08-05T14:23:25.924Z,1.90
2022-08-05T14:25:58.868Z,2.10
2022-08-05T14:28:29.078Z,1.70
2022-08-05T14:30:57.936Z,2.00
2022-08-05T14:33:25.163Z,2.30
2022-08-05T14:35:54.481Z,1.70
2022-08-05T14:38:32.146Z,1.70
2022-08-05T14:41:06.788Z,2.00
2022-08-05T14:43:57.541Z,1.90
2022-08-05T14:46:29.646Z,1.80
2022-08-05T14:49:06.734Z,2.10
2022-08-05T14:51:42.959Z,2.80
2022-08-05T14:54:27.824Z,3.30
2022-08-05T14:56:58.276Z,2.00
2022-08-05T14:59:29.585Z,2.00
2022-08-05T15:02:15.118Z,1.80
2022-08-05T15:04:44.934Z,11.90
2022-08-05T15:08:05.825Z,3.20
2022-08-05T15:10:03.210Z,3.20
2022-08-05T15:12:45.782Z,2.30
2022-08-05T15:15:55.454Z,4.10
2022-08-05T15:18:06.313Z,3.80
2022-08-05T15:20:33.394Z,2.10
2022-08-05T15:23:06.380Z,2.10
2022-08-05T15:25:40.936Z,2.30
2022-08-05T15:28:18.724Z,2.20
2022-08-05T15:30:46.482Z,1.90
2022-08-05T15:33:56.821Z,2.00
2022-08-05T15:36:04.707Z,3.30
2022-08-05T15:38:40.797Z,1.90
2022-08-05T15:41:20.860Z,1.70
2022-08-05T15:43:52.232Z,1.80
2022-08-05T15:46:24.161Z,1.90
2022-08-05T15:48:58.839Z,2.00
2022-08-05T15:52:13.444Z,2.00
2022-08-05T15:54:16.917Z,1.90
2022-08-05T15:56:43.817Z,1.60
2022-08-05T15:59:21.593Z,2.00
2022-08-05T16:01:52.257Z,1.70
2022-08-05T16:04:25.690Z,1.90
2022-08-05T16:06:55.996Z,2.30
2022-08-05T16:09:24.510Z,1.70
2022-08-05T16:11:53.745Z,2.30
2022-08-05T16:14:22.584Z,2.00
2022-08-05T16:16:49.953Z,1.80
2022-08-05T16:19:25.660Z,2.40
2022-08-05T16:22:05.546Z,2.00
2022-08-05T16:24:41.419Z,1.60
2022-08-05T16:27:19.098Z,1.60
2022-08-05T16:29:59.358Z,2.00
2022-08-05T16:32:29.502Z,1.70
2022-08-05T16:34:57.553Z,1.90
2022-08-05T16:38:02.784Z,1.60
2022-08-05T16:40:28.594Z,2.30
2022-08-05T16:46:03.519Z,1.80
2022-08-05T16:48:10.854Z,1.70
2022-08-05T16:50:53.582Z,2.10
2022-08-05T16:53:32.079Z,2.20
2022-08-05T16:55:59.954Z,1.70
2022-08-05T16:58:27.003Z,1.90
2022-08-05T17:00:54.198Z,2.00
2022-08-05T17:03:22.328Z,2.00
2022-08-05T17:05:53.971Z,1.90
2022-08-05T17:08:35.841Z,2.40
2022-08-05T17:11:04.060Z,1.80
2022-08-05T17:13:37.235Z,2.00
2022-08-05T17:16:28.001Z,2.60
2022-08-05T17:18:53.165Z,2.20
2022-08-05T17:21:21.348Z,2.10
2022-08-05T17:24:05.103Z,2.50
2022-08-05T17:26:38.678Z,2.50
2022-08-05T17:29:09.810Z,2.60
2022-08-05T17:31:41.249Z,2.80
2022-08-05T17:34:29.549Z,2.50
2022-08-05T17:37:00.341Z,2.90
2022-08-05T17:39:33.999Z,3.20
2022-08-05T17:42:17.324Z,3.00
2022-08-05T17:44:50.798Z,2.60
2022-08-05T17:47:22.130Z,2.20
2022-08-05T17:50:00.372Z,2.30
2022-08-05T17:52:33.059Z,2.20
2022-08-05T17:55:00.877Z,2.50
2022-08-05T17:57:30.250Z,2.30
2022-08-05T18:00:03.772Z,2.30
2022-08-05T18:02:34.355Z,2.10
2022-08-05T18:05:07.645Z,2.50
2022-08-05T18:07:41.748Z,2.30
2022-08-05T18:10:20.348Z,2.20
2022-08-05T18:12:49.055Z,2.10
2022-08-05T18:15:16.094Z,2.40
2022-08-05T18:18:00.524Z,2.70
2022-08-05T18:20:31.651Z,2.80
2022-08-05T18:23:05.977Z,2.40
2022-08-05T18:25:45.548Z,2.70
2022-08-05T18:28:17.279Z,2.90
2022-08-05T18:30:49.999Z,2.50
2022-08-05T18:33:23.157Z,2.40
2022-08-05T18:36:03.283Z,3.00
2022-08-05T18:38:31.213Z,2.60
2022-08-05T18:41:57.572Z,2.40
2022-08-05T18:43:48.581Z,2.30
2022-08-05T18:46:19.756Z,2.60
2022-08-05T18:48:51.598Z,2.80
2022-08-05T18:52:05.715Z,3.50
2022-08-05T18:54:31.359Z,2.90
2022-08-05T18:57:01.311Z,2.90
2022-08-05T18:59:43.409Z,2.90
2022-08-05T19:02:28.323Z,3.60
2022-08-05T19:05:02.459Z,3.20
2022-08-05T19:07:49.222Z,2.90
2022-08-05T19:10:26.506Z,3.20
2022-08-05T19:12:56.909Z,2.90
2022-08-05T19:15:57.909Z,3.50
2022-08-05T19:18:21.812Z,2.90
2022-08-05T19:20:53.933Z,3.20
2022-08-05T19:24:04.325Z,3.20
2022-08-05T19:26:08.449Z,3.00
2022-08-05T19:28:41.664Z,3.10
2022-08-05T19:31:13.186Z,3.50
2022-08-05T19:33:48.159Z,3.30
2022-08-05T19:36:27.193Z,3.10
2022-08-05T19:38:58.846Z,2.90
2022-08-05T19:42:05.823Z,3.70
2022-08-05T19:44:18.592Z,3.50
2022-08-05T19:46:46.460Z,3.30
2022-08-05T19:49:16.798Z,3.10
2022-08-05T19:52:09.179Z,2.80
2022-08-05T19:54:34.666Z,3.10
2022-08-05T19:57:06.255Z,3.10
2022-08-05T19:59:55.752Z,3.40
2022-08-05T20:02:23.779Z,3.20
2022-08-05T20:04:54.889Z,3.80
2022-08-05T20:07:47.386Z,3.50
2022-08-05T20:10:13.374Z,3.60
2022-08-05T20:12:47.929Z,3.30
2022-08-05T20:15:23.066Z,3.40
2022-08-05T20:18:10.671Z,3.30
2022-08-05T20:20:56.266Z,3.10
2022-08-05T20:23:39.506Z,3.30
2022-08-05T20:26:15.910Z,3.20
2022-08-05T20:28:49.843Z,3.40
2022-08-05T20:31:21.727Z,3.70
2022-08-05T20:33:51.698Z,3.40
2022-08-05T20:36:21.307Z,3.30
2022-08-05T20:38:53.739Z,3.20
2022-08-05T20:41:44.390Z,3.40
2022-08-05T20:44:18.962Z,3.40
2022-08-05T20:47:04.391Z,3.70
2022-08-05T20:49:33.269Z,3.50
2022-08-05T20:52:08.431Z,3.10
2022-08-05T20:54:43.398Z,3.70
2022-08-05T20:57:42.131Z,3.10
2022-08-05T21:00:40.099Z,3.50
2022-08-05T21:03:04.406Z,3.40
2022-08-05T21:05:48.362Z,3.90
2022-08-05T21:08:41.564Z,3.70
2022-08-05T21:11:15.082Z,3.70
2022-08-05T21:13:55.770Z,3.60
2022-08-05T21:16:29.135Z,3.50
2022-08-05T21:19:01.898Z,4.10
2022-08-05T21:21:39.106Z,3.80
2022-08-05T21:24:12.783Z,3.40
2022-08-05T21:26:41.430Z,3.80
2022-08-05T21:29:12.440Z,3.80
2022-08-05T21:31:41.123Z,3.70
2022-08-05T21:34:10.522Z,3.20
2022-08-05T21:36:39.253Z,3.10
2022-08-05T21:39:14.295Z,3.20
2022-08-05T21:41:52.697Z,3.50
2022-08-05T21:44:28.357Z,3.60
2022-08-05T21:46:55.753Z,3.90
2022-08-05T21:49:48.095Z,3.30
2022-08-05T21:52:16.118Z,3.40
2022-08-05T21:54:51.122Z,3.90
2022-08-05T21:57:34.299Z,3.50
2022-08-05T22:00:05.481Z,3.30
2022-08-05T22:02:41.634Z,3.70
2022-08-05T22:05:11.486Z,3.60
2022-08-05T22:07:59.380Z,3.40
2022-08-05T22:10:27.788Z,3.60
2022-08-05T22:12:58.811Z,3.50
2022-08-05T22:16:01.240Z,3.60
2022-08-05T22:18:14.645Z,2.90
2022-08-05T22:20:42.879Z,3.50
2022-08-05T22:24:03.227Z,3.40
2022-08-05T22:26:35.316Z,3.50
2022-08-05T22:29:03.883Z,3.30
2022-08-05T22:31:31.060Z,3.60
2022-08-05T22:34:12.863Z,3.40
2022-08-05T22:36:48.135Z,3.00
2022-08-05T22:39:19.427Z,3.30
2022-08-05T22:42:10.633Z,4.00
2022-08-05T22:44:35.442Z,3.70
2022-08-05T22:47:06.006Z,3.50
2022-08-05T22:50:20.000Z,3.50
2022-08-05T22:52:32.433Z,3.70
2022-08-05T22:55:04.323Z,3.70
2022-08-05T22:57:45.571Z,3.60
2022-08-05T23:00:18.470Z,3.20
2022-08-05T23:02:49.786Z,3.50
2022-08-05T23:05:18.637Z,3.60
2022-08-05T23:07:50.366Z,3.70
2022-08-05T23:10:20.952Z,3.10
2022-08-05T23:12:55.031Z,3.60
2022-08-05T23:15:29.967Z,3.30
2022-08-05T23:18:06.083Z,3.50
2022-08-05T23:20:39.107Z,3.10
2022-08-05T23:23:09.612Z,3.20
2022-08-05T23:25:50.923Z,3.20
2022-08-05T23:28:29.005Z,3.70
2022-08-05T23:31:16.266Z,3.40
2022-08-05T23:34:03.856Z,4.10
2022-08-05T23:36:38.803Z,3.60
2022-08-05T23:39:08.746Z,3.90
2022-08-05T23:41:40.922Z,3.20
2022-08-05T23:44:08.702Z,3.20
2022-08-05T23:46:37.445Z,3.20
2022-08-05T23:49:17.073Z,3.20
2022-08-05T23:54:38.412Z,3.50
2022-08-05T23:57:07.607Z,3.90
